sensor_id;sensor_type;location;lat;lon;timestamp;temperature;humidity
6690;DHT22;3382;51.576;8.076;2023-02-05T00:00:23;3.50;99.90
6690;DHT22;3382;51.576;8.076;2023-02-05T00:02:49;3.50;99.90
6690;DHT22;3382;51.576;8.076;2023-02-05T00:05:15;3.50;99.90
6690;DHT22;3382;51.576;8.076;2023-02-05T00:07:40;3.60;99.90
6690;DHT22;3382;51.576;8.076;2023-02-05T00:10:06;3.60;99.90
6690;DHT22;3382;51.576;8.076;2023-02-05T00:12:32;3.50;99.90
6690;DHT22;3382;51.576;8.076;2023-02-05T00:14:57;3.50;99.90
6690;DHT22;3382;51.576;8.076;2023-02-05T00:17:23;3.30;99.90
6690;DHT22;3382;51.576;8.076;2023-02-05T00:19:49;3.50;99.90
6690;DHT22;3382;51.576;8.076;2023-02-05T00:22:14;3.50;99.90
6690;DHT22;3382;51.576;8.076;2023-02-05T00:24:40;3.60;99.90
6690;DHT22;3382;51.576;8.076;2023-02-05T00:27:06;3.60;99.90
6690;DHT22;3382;51.576;8.076;2023-02-05T00:29:32;3.70;99.90
6690;DHT22;3382;51.576;8.076;2023-02-05T00:31:57;3.70;99.90
6690;DHT22;3382;51.576;8.076;2023-02-05T00:34:23;3.70;99.90
6690;DHT22;3382;51.576;8.076;2023-02-05T00:36:48;3.70;99.90
6690;DHT22;3382;51.576;8.076;2023-02-05T00:39:14;4.30;99.90
6690;DHT22;3382;51.576;8.076;2023-02-05T00:41:40;3.90;99.90
6690;DHT22;3382;51.576;8.076;2023-02-05T00:44:06;3.80;99.90
6690;DHT22;3382;51.576;8.076;2023-02-05T00:46:31;3.80;99.90
6690;DHT22;3382;51.576;8.076;2023-02-05T00:48:57;3.80;99.90
6690;DHT22;3382;51.576;8.076;2023-02-05T00:51:23;3.80;99.90
6690;DHT22;3382;51.576;8.076;2023-02-05T00:53:49;3.90;99.90
6690;DHT22;3382;51.576;8.076;2023-02-05T00:56:14;4.00;99.90
6690;DHT22;3382;51.576;8.076;2023-02-05T00:58:40;4.00;99.90
6690;DHT22;3382;51.576;8.076;2023-02-05T01:01:12;4.70;99.90
6690;DHT22;3382;51.576;8.076;2023-02-05T01:03:39;4.10;99.90
6690;DHT22;3382;51.576;8.076;2023-02-05T01:06:04;4.20;99.90
6690;DHT22;3382;51.576;8.076;2023-02-05T01:08:30;4.40;99.90
6690;DHT22;3382;51.576;8.076;2023-02-05T01:10:56;4.70;99.90
6690;DHT22;3382;51.576;8.076;2023-02-05T01:13:21;4.70;99.90
6690;DHT22;3382;51.576;8.076;2023-02-05T01:15:47;4.70;99.90
6690;DHT22;3382;51.576;8.076;2023-02-05T01:18:13;4.60;99.90
6690;DHT22;3382;51.576;8.076;2023-02-05T01:20:40;4.60;99.90
6690;DHT22;3382;51.576;8.076;2023-02-05T01:23:06;4.60;99.90
6690;DHT22;3382;51.576;8.076;2023-02-05T01:25:32;4.50;99.90
6690;DHT22;3382;51.576;8.076;2023-02-05T01:27:58;4.50;99.90
6690;DHT22;3382;51.576;8.076;2023-02-05T01:30:23;4.50;99.90
6690;DHT22;3382;51.576;8.076;2023-02-05T01:32:49;4.50;99.90
6690;DHT22;3382;51.576;8.076;2023-02-05T01:35:15;4.40;99.90
6690;DHT22;3382;51.576;8.076;2023-02-05T01:37:40;4.50;99.90
6690;DHT22;3382;51.576;8.076;2023-02-05T01:40:06;4.60;99.90
6690;DHT22;3382;51.576;8.076;2023-02-05T01:42:32;4.70;99.90
6690;DHT22;3382;51.576;8.076;2023-02-05T01:48:01;5.10;99.90
6690;DHT22;3382;51.576;8.076;2023-02-05T01:50:28;5.30;99.90
6690;DHT22;3382;51.576;8.076;2023-02-05T01:52:57;5.40;99.90
6690;DHT22;3382;51.576;8.076;2023-02-05T01:55:24;5.50;99.90
6690;DHT22;3382;51.576;8.076;2023-02-05T01:57:50;5.50;99.90
6690;DHT22;3382;51.576;8.076;2023-02-05T02:00:16;5.60;99.90
6690;DHT22;3382;51.576;8.076;2023-02-05T02:02:42;5.60;99.90
6690;DHT22;3382;51.576;8.076;2023-02-05T02:05:13;5.70;99.90
6690;DHT22;3382;51.576;8.076;2023-02-05T02:07:40;5.70;99.90
6690;DHT22;3382;51.576;8.076;2023-02-05T02:10:07;5.80;99.90
6690;DHT22;3382;51.576;8.076;2023-02-05T02:12:35;5.80;99.90
6690;DHT22;3382;51.576;8.076;2023-02-05T02:15:06;5.80;99.90
6690;DHT22;3382;51.576;8.076;2023-02-05T02:17:35;5.90;99.90
6690;DHT22;3382;51.576;8.076;2023-02-05T02:28:40;6.00;99.90
6690;DHT22;3382;51.576;8.076;2023-02-05T02:31:22;6.00;99.90
6690;DHT22;3382;51.576;8.076;2023-02-05T02:34:10;6.10;99.90
6690;DHT22;3382;51.576;8.076;2023-02-05T02:36:57;6.10;99.90
6690;DHT22;3382;51.576;8.076;2023-02-05T02:39:32;6.10;99.90
6690;DHT22;3382;51.576;8.076;2023-02-05T02:42:05;6.20;99.90
6690;DHT22;3382;51.576;8.076;2023-02-05T02:44:47;6.20;99.90
6690;DHT22;3382;51.576;8.076;2023-02-05T02:47:20;6.20;99.90
6690;DHT22;3382;51.576;8.076;2023-02-05T02:50:21;6.20;99.90
6690;DHT22;3382;51.576;8.076;2023-02-05T02:52:49;6.10;99.90
6690;DHT22;3382;51.576;8.076;2023-02-05T02:55:16;6.20;99.90
6690;DHT22;3382;51.576;8.076;2023-02-05T02:57:45;6.40;99.90
6690;DHT22;3382;51.576;8.076;2023-02-05T03:00:16;6.20;99.90
6690;DHT22;3382;51.576;8.076;2023-02-05T03:02:44;6.20;99.90
6690;DHT22;3382;51.576;8.076;2023-02-05T03:05:16;6.20;99.90
6690;DHT22;3382;51.576;8.076;2023-02-05T03:07:51;6.10;99.90
6690;DHT22;3382;51.576;8.076;2023-02-05T03:12:57;6.20;99.90
6690;DHT22;3382;51.576;8.076;2023-02-05T03:15:23;6.20;99.90
6690;DHT22;3382;51.576;8.076;2023-02-05T03:17:50;6.60;99.90
6690;DHT22;3382;51.576;8.076;2023-02-05T03:20:43;6.20;99.90
6690;DHT22;3382;51.576;8.076;2023-02-05T03:23:09;6.20;99.90
6690;DHT22;3382;51.576;8.076;2023-02-05T03:25:35;6.20;99.90
6690;DHT22;3382;51.576;8.076;2023-02-05T03:28:01;6.10;99.90
6690;DHT22;3382;51.576;8.076;2023-02-05T03:30:35;6.10;99.90
6690;DHT22;3382;51.576;8.076;2023-02-05T03:36:08;6.10;99.90
6690;DHT22;3382;51.576;8.076;2023-02-05T03:41:33;6.00;99.90
6690;DHT22;3382;51.576;8.076;2023-02-05T03:47:30;6.10;99.90
6690;DHT22;3382;51.576;8.076;2023-02-05T03:50:23;6.20;99.90
6690;DHT22;3382;51.576;8.076;2023-02-05T03:53:02;6.30;99.90
6690;DHT22;3382;51.576;8.076;2023-02-05T03:55:37;6.30;99.90
6690;DHT22;3382;51.576;8.076;2023-02-05T03:58:10;6.40;99.90
6690;DHT22;3382;51.576;8.076;2023-02-05T04:00:39;6.40;99.90
6690;DHT22;3382;51.576;8.076;2023-02-05T04:03:05;6.50;99.90
6690;DHT22;3382;51.576;8.076;2023-02-05T04:05:31;6.50;99.90
6690;DHT22;3382;51.576;8.076;2023-02-05T04:07:56;6.50;99.90
6690;DHT22;3382;51.576;8.076;2023-02-05T04:10:22;6.50;99.90
6690;DHT22;3382;51.576;8.076;2023-02-05T04:12:48;6.50;99.90
6690;DHT22;3382;51.576;8.076;2023-02-05T04:15:13;6.50;99.90
6690;DHT22;3382;51.576;8.076;2023-02-05T04:17:39;6.50;99.90
6690;DHT22;3382;51.576;8.076;2023-02-05T04:20:05;6.50;99.90
6690;DHT22;3382;51.576;8.076;2023-02-05T04:22:31;6.40;99.90
6690;DHT22;3382;51.576;8.076;2023-02-05T04:24:57;6.40;99.90
6690;DHT22;3382;51.576;8.076;2023-02-05T04:27:23;6.40;99.90
6690;DHT22;3382;51.576;8.076;2023-02-05T04:29:48;6.40;99.90
6690;DHT22;3382;51.576;8.076;2023-02-05T04:32:14;6.80;99.90
6690;DHT22;3382;51.576;8.076;2023-02-05T04:34:39;6.30;99.90
6690;DHT22;3382;51.576;8.076;2023-02-05T04:37:05;6.30;99.90
6690;DHT22;3382;51.576;8.076;2023-02-05T04:39:30;6.40;99.90
6690;DHT22;3382;51.576;8.076;2023-02-05T04:41:56;6.50;99.90
6690;DHT22;3382;51.576;8.076;2023-02-05T04:44:22;6.40;99.90
6690;DHT22;3382;51.576;8.076;2023-02-05T04:46:47;6.50;99.90
6690;DHT22;3382;51.576;8.076;2023-02-05T04:49:13;6.50;99.90
6690;DHT22;3382;51.576;8.076;2023-02-05T04:51:39;6.50;99.90
6690;DHT22;3382;51.576;8.076;2023-02-05T04:54:04;6.50;99.90
6690;DHT22;3382;51.576;8.076;2023-02-05T04:56:30;6.60;99.90
6690;DHT22;3382;51.576;8.076;2023-02-05T04:58:55;6.60;99.90
6690;DHT22;3382;51.576;8.076;2023-02-05T05:01:22;6.60;99.90
6690;DHT22;3382;51.576;8.076;2023-02-05T05:03:48;6.60;99.90
6690;DHT22;3382;51.576;8.076;2023-02-05T05:06:15;6.60;99.90
6690;DHT22;3382;51.576;8.076;2023-02-05T05:08:41;6.60;99.90
6690;DHT22;3382;51.576;8.076;2023-02-05T05:11:09;6.70;99.90
6690;DHT22;3382;51.576;8.076;2023-02-05T05:13:36;6.70;99.90
6690;DHT22;3382;51.576;8.076;2023-02-05T05:16:02;6.70;99.90
6690;DHT22;3382;51.576;8.076;2023-02-05T05:18:28;6.70;99.90
6690;DHT22;3382;51.576;8.076;2023-02-05T05:20:53;6.70;99.90
6690;DHT22;3382;51.576;8.076;2023-02-05T05:23:19;6.70;99.90
6690;DHT22;3382;51.576;8.076;2023-02-05T05:25:46;6.70;99.90
6690;DHT22;3382;51.576;8.076;2023-02-05T05:28:12;6.80;99.90
6690;DHT22;3382;51.576;8.076;2023-02-05T05:30:39;6.80;99.90
6690;DHT22;3382;51.576;8.076;2023-02-05T05:33:05;6.80;99.90
6690;DHT22;3382;51.576;8.076;2023-02-05T05:35:31;6.80;99.90
6690;DHT22;3382;51.576;8.076;2023-02-05T05:37:57;6.80;99.90
6690;DHT22;3382;51.576;8.076;2023-02-05T05:40:23;6.80;99.90
6690;DHT22;3382;51.576;8.076;2023-02-05T05:43:11;6.80;99.90
6690;DHT22;3382;51.576;8.076;2023-02-05T05:45:56;6.80;99.90
6690;DHT22;3382;51.576;8.076;2023-02-05T05:48:22;6.80;99.90
6690;DHT22;3382;51.576;8.076;2023-02-05T05:50:47;7.10;99.90
6690;DHT22;3382;51.576;8.076;2023-02-05T05:53:13;6.90;99.90
6690;DHT22;3382;51.576;8.076;2023-02-05T05:55:39;6.90;99.90
6690;DHT22;3382;51.576;8.076;2023-02-05T05:58:05;7.00;99.90
6690;DHT22;3382;51.576;8.076;2023-02-05T06:00:30;7.10;99.90
6690;DHT22;3382;51.576;8.076;2023-02-05T06:02:56;7.30;99.90
6690;DHT22;3382;51.576;8.076;2023-02-05T06:05:22;7.30;99.90
6690;DHT22;3382;51.576;8.076;2023-02-05T06:07:47;7.30;99.90
6690;DHT22;3382;51.576;8.076;2023-02-05T06:10:13;7.30;99.90
6690;DHT22;3382;51.576;8.076;2023-02-05T06:12:38;7.30;99.90
6690;DHT22;3382;51.576;8.076;2023-02-05T06:15:04;7.50;99.90
6690;DHT22;3382;51.576;8.076;2023-02-05T06:17:30;7.40;99.90
6690;DHT22;3382;51.576;8.076;2023-02-05T06:19:56;7.40;99.90
6690;DHT22;3382;51.576;8.076;2023-02-05T06:22:21;7.40;99.90
6690;DHT22;3382;51.576;8.076;2023-02-05T06:24:47;7.40;99.90
6690;DHT22;3382;51.576;8.076;2023-02-05T06:27:13;7.30;99.90
6690;DHT22;3382;51.576;8.076;2023-02-05T06:29:38;7.40;99.90
6690;DHT22;3382;51.576;8.076;2023-02-05T06:32:04;7.50;99.90
6690;DHT22;3382;51.576;8.076;2023-02-05T06:34:30;7.60;99.90
6690;DHT22;3382;51.576;8.076;2023-02-05T06:36:55;7.70;99.90
6690;DHT22;3382;51.576;8.076;2023-02-05T06:39:21;7.90;99.90
6690;DHT22;3382;51.576;8.076;2023-02-05T06:41:47;7.80;99.90
6690;DHT22;3382;51.576;8.076;2023-02-05T06:44:12;7.60;99.90
6690;DHT22;3382;51.576;8.076;2023-02-05T06:46:38;7.60;99.90
6690;DHT22;3382;51.576;8.076;2023-02-05T06:49:04;7.60;99.90
6690;DHT22;3382;51.576;8.076;2023-02-05T06:51:29;7.60;99.90
6690;DHT22;3382;51.576;8.076;2023-02-05T06:53:55;7.60;99.90
6690;DHT22;3382;51.576;8.076;2023-02-05T06:56:22;7.70;99.90
6690;DHT22;3382;51.576;8.076;2023-02-05T06:58:48;7.70;99.90
6690;DHT22;3382;51.576;8.076;2023-02-05T07:01:14;7.70;99.90
6690;DHT22;3382;51.576;8.076;2023-02-05T07:03:39;7.70;99.90
6690;DHT22;3382;51.576;8.076;2023-02-05T07:06:05;7.70;99.90
6690;DHT22;3382;51.576;8.076;2023-02-05T07:08:32;7.70;99.90
6690;DHT22;3382;51.576;8.076;2023-02-05T07:10:57;7.70;99.90
6690;DHT22;3382;51.576;8.076;2023-02-05T07:13:23;7.70;99.90
6690;DHT22;3382;51.576;8.076;2023-02-05T07:15:49;7.80;99.90
6690;DHT22;3382;51.576;8.076;2023-02-05T07:18:15;7.80;99.90
6690;DHT22;3382;51.576;8.076;2023-02-05T07:20:41;7.80;99.90
6690;DHT22;3382;51.576;8.076;2023-02-05T07:23:06;7.80;99.90
6690;DHT22;3382;51.576;8.076;2023-02-05T07:25:32;7.90;99.90
6690;DHT22;3382;51.576;8.076;2023-02-05T07:28:03;7.90;99.90
6690;DHT22;3382;51.576;8.076;2023-02-05T07:30:29;8.00;99.90
6690;DHT22;3382;51.576;8.076;2023-02-05T07:32:54;8.20;99.90
6690;DHT22;3382;51.576;8.076;2023-02-05T07:35:20;8.40;99.90
6690;DHT22;3382;51.576;8.076;2023-02-05T07:37:46;8.70;99.90
6690;DHT22;3382;51.576;8.076;2023-02-05T07:40:11;8.90;99.90
6690;DHT22;3382;51.576;8.076;2023-02-05T07:42:37;8.80;99.90
6690;DHT22;3382;51.576;8.076;2023-02-05T07:45:03;8.70;99.90
6690;DHT22;3382;51.576;8.076;2023-02-05T07:47:29;8.40;99.90
6690;DHT22;3382;51.576;8.076;2023-02-05T07:49:54;8.30;99.90
6690;DHT22;3382;51.576;8.076;2023-02-05T07:52:20;8.30;99.90
6690;DHT22;3382;51.576;8.076;2023-02-05T07:54:46;8.40;99.90
6690;DHT22;3382;51.576;8.076;2023-02-05T07:57:12;8.30;99.90
6690;DHT22;3382;51.576;8.076;2023-02-05T07:59:37;8.40;99.90
6690;DHT22;3382;51.576;8.076;2023-02-05T08:02:03;8.20;99.90
6690;DHT22;3382;51.576;8.076;2023-02-05T08:04:29;8.20;99.90
6690;DHT22;3382;51.576;8.076;2023-02-05T08:06:54;8.10;99.90
6690;DHT22;3382;51.576;8.076;2023-02-05T08:09:20;8.20;99.90
6690;DHT22;3382;51.576;8.076;2023-02-05T08:11:45;8.10;99.90
6690;DHT22;3382;51.576;8.076;2023-02-05T08:14:11;8.10;99.90
6690;DHT22;3382;51.576;8.076;2023-02-05T08:16:37;8.10;99.90
6690;DHT22;3382;51.576;8.076;2023-02-05T08:19:02;8.10;99.90
6690;DHT22;3382;51.576;8.076;2023-02-05T08:21:28;8.00;99.90
6690;DHT22;3382;51.576;8.076;2023-02-05T08:23:54;8.10;99.90
6690;DHT22;3382;51.576;8.076;2023-02-05T08:26:21;8.00;99.90
6690;DHT22;3382;51.576;8.076;2023-02-05T08:28:47;8.00;99.90
6690;DHT22;3382;51.576;8.076;2023-02-05T08:31:16;8.00;99.90
6690;DHT22;3382;51.576;8.076;2023-02-05T08:33:42;7.90;99.90
6690;DHT22;3382;51.576;8.076;2023-02-05T08:36:10;7.90;99.90
6690;DHT22;3382;51.576;8.076;2023-02-05T08:38:36;7.90;99.90
6690;DHT22;3382;51.576;8.076;2023-02-05T08:41:07;7.90;99.90
6690;DHT22;3382;51.576;8.076;2023-02-05T08:43:40;8.00;99.90
6690;DHT22;3382;51.576;8.076;2023-02-05T08:46:07;7.90;99.90
6690;DHT22;3382;51.576;8.076;2023-02-05T08:48:32;8.00;99.90
6690;DHT22;3382;51.576;8.076;2023-02-05T08:50:58;8.00;99.90
6690;DHT22;3382;51.576;8.076;2023-02-05T08:53:27;8.00;99.90
6690;DHT22;3382;51.576;8.076;2023-02-05T08:55:58;8.10;99.90
6690;DHT22;3382;51.576;8.076;2023-02-05T08:58:24;8.10;99.90
6690;DHT22;3382;51.576;8.076;2023-02-05T09:00:50;8.00;99.90
6690;DHT22;3382;51.576;8.076;2023-02-05T09:03:15;8.10;99.90
6690;DHT22;3382;51.576;8.076;2023-02-05T09:05:41;8.20;99.90
6690;DHT22;3382;51.576;8.076;2023-02-05T09:08:07;8.20;99.90
6690;DHT22;3382;51.576;8.076;2023-02-05T09:10:32;8.20;99.90
6690;DHT22;3382;51.576;8.076;2023-02-05T09:12:58;8.20;99.90
6690;DHT22;3382;51.576;8.076;2023-02-05T09:15:24;8.20;99.90
6690;DHT22;3382;51.576;8.076;2023-02-05T09:17:49;8.20;99.90
6690;DHT22;3382;51.576;8.076;2023-02-05T09:20:15;8.20;99.90
6690;DHT22;3382;51.576;8.076;2023-02-05T09:22:41;8.20;99.90
6690;DHT22;3382;51.576;8.076;2023-02-05T09:25:07;8.10;99.90
6690;DHT22;3382;51.576;8.076;2023-02-05T09:27:32;8.10;99.90
6690;DHT22;3382;51.576;8.076;2023-02-05T09:29:58;8.10;99.90
6690;DHT22;3382;51.576;8.076;2023-02-05T09:32:24;8.10;99.90
6690;DHT22;3382;51.576;8.076;2023-02-05T09:34:49;8.00;99.90
6690;DHT22;3382;51.576;8.076;2023-02-05T09:37:16;8.20;99.90
6690;DHT22;3382;51.576;8.076;2023-02-05T09:39:42;8.10;99.90
6690;DHT22;3382;51.576;8.076;2023-02-05T09:45:24;8.10;99.90
6690;DHT22;3382;51.576;8.076;2023-02-05T09:50:34;8.10;99.90
6690;DHT22;3382;51.576;8.076;2023-02-05T09:53:05;8.10;99.90
6690;DHT22;3382;51.576;8.076;2023-02-05T09:55:38;8.10;99.90
6690;DHT22;3382;51.576;8.076;2023-02-05T09:58:18;8.10;99.90
6690;DHT22;3382;51.576;8.076;2023-02-05T10:00:56;8.10;99.90
6690;DHT22;3382;51.576;8.076;2023-02-05T10:09:20;8.10;99.90
6690;DHT22;3382;51.576;8.076;2023-02-05T10:17:40;8.10;99.90
6690;DHT22;3382;51.576;8.076;2023-02-05T10:25:36;8.20;99.90
6690;DHT22;3382;51.576;8.076;2023-02-05T10:33:17;8.20;99.90
6690;DHT22;3382;51.576;8.076;2023-02-05T10:36:01;8.20;99.90
6690;DHT22;3382;51.576;8.076;2023-02-05T10:38:31;8.20;99.90
6690;DHT22;3382;51.576;8.076;2023-02-05T10:41:16;8.30;99.90
6690;DHT22;3382;51.576;8.076;2023-02-05T10:46:44;8.10;99.90
6690;DHT22;3382;51.576;8.076;2023-02-05T10:51:59;8.10;99.90
6690;DHT22;3382;51.576;8.076;2023-02-05T10:54:32;8.10;99.90
6690;DHT22;3382;51.576;8.076;2023-02-05T10:56:58;8.20;99.90
6690;DHT22;3382;51.576;8.076;2023-02-05T10:59:34;8.20;99.90
6690;DHT22;3382;51.576;8.076;2023-02-05T11:02:03;8.20;99.90
6690;DHT22;3382;51.576;8.076;2023-02-05T11:07:13;8.10;99.90
6690;DHT22;3382;51.576;8.076;2023-02-05T11:09:40;8.10;99.90
6690;DHT22;3382;51.576;8.076;2023-02-05T11:14:44;8.00;99.90
6690;DHT22;3382;51.576;8.076;2023-02-05T11:17:19;8.10;99.90
6690;DHT22;3382;51.576;8.076;2023-02-05T11:19:57;8.10;99.90
6690;DHT22;3382;51.576;8.076;2023-02-05T11:22:41;8.10;99.90
6690;DHT22;3382;51.576;8.076;2023-02-05T11:25:14;8.10;99.90
6690;DHT22;3382;51.576;8.076;2023-02-05T11:27:50;8.20;99.90
6690;DHT22;3382;51.576;8.076;2023-02-05T11:30:25;8.20;99.90
6690;DHT22;3382;51.576;8.076;2023-02-05T11:32:52;8.10;99.90
6690;DHT22;3382;51.576;8.076;2023-02-05T11:35:25;8.10;99.90
6690;DHT22;3382;51.576;8.076;2023-02-05T11:40:52;8.20;99.90
6690;DHT22;3382;51.576;8.076;2023-02-05T11:43:30;8.20;99.90
6690;DHT22;3382;51.576;8.076;2023-02-05T11:45:58;8.10;99.90
6690;DHT22;3382;51.576;8.076;2023-02-05T11:48:41;8.10;99.90
6690;DHT22;3382;51.576;8.076;2023-02-05T11:51:13;8.10;99.90
6690;DHT22;3382;51.576;8.076;2023-02-05T11:53:51;8.00;99.90
6690;DHT22;3382;51.576;8.076;2023-02-05T11:56:23;8.10;99.90
6690;DHT22;3382;51.576;8.076;2023-02-05T11:59:15;8.10;99.90
6690;DHT22;3382;51.576;8.076;2023-02-05T12:01:42;8.30;99.90
6690;DHT22;3382;51.576;8.076;2023-02-05T12:06:55;8.10;99.90
6690;DHT22;3382;51.576;8.076;2023-02-05T12:09:23;8.10;99.90
6690;DHT22;3382;51.576;8.076;2023-02-05T12:23:18;8.10;99.90
6690;DHT22;3382;51.576;8.076;2023-02-05T12:31:43;8.00;99.90
6690;DHT22;3382;51.576;8.076;2023-02-05T12:34:44;7.90;99.90
6690;DHT22;3382;51.576;8.076;2023-02-05T12:42:32;7.70;99.90
6690;DHT22;3382;51.576;8.076;2023-02-05T12:48:17;7.70;99.90
6690;DHT22;3382;51.576;8.076;2023-02-05T12:53:38;7.70;99.90
6690;DHT22;3382;51.576;8.076;2023-02-05T12:59:05;7.60;99.90
6690;DHT22;3382;51.576;8.076;2023-02-05T13:01:42;7.60;99.90
6690;DHT22;3382;51.576;8.076;2023-02-05T13:04:28;7.60;99.90
6690;DHT22;3382;51.576;8.076;2023-02-05T13:06:59;9.20;99.90
6690;DHT22;3382;51.576;8.076;2023-02-05T13:09:48;10.90;99.90
6690;DHT22;3382;51.576;8.076;2023-02-05T13:12:19;10.50;99.90
6690;DHT22;3382;51.576;8.076;2023-02-05T13:15:14;9.40;99.90
6690;DHT22;3382;51.576;8.076;2023-02-05T13:17:49;8.80;99.90
6690;DHT22;3382;51.576;8.076;2023-02-05T13:20:35;8.50;99.90
6690;DHT22;3382;51.576;8.076;2023-02-05T13:23:20;8.30;99.90
6690;DHT22;3382;51.576;8.076;2023-02-05T13:26:06;8.10;99.90
6690;DHT22;3382;51.576;8.076;2023-02-05T13:29:07;8.00;99.90
6690;DHT22;3382;51.576;8.076;2023-02-05T13:31:39;7.90;99.90
6690;DHT22;3382;51.576;8.076;2023-02-05T13:34:10;7.90;99.90
6690;DHT22;3382;51.576;8.076;2023-02-05T13:59:03;7.70;99.90
6690;DHT22;3382;51.576;8.076;2023-02-05T14:01:41;7.80;99.90
6690;DHT22;3382;51.576;8.076;2023-02-05T14:04:22;7.80;99.90
6690;DHT22;3382;51.576;8.076;2023-02-05T14:07:05;7.60;99.90
6690;DHT22;3382;51.576;8.076;2023-02-05T14:09:37;7.60;99.90
6690;DHT22;3382;51.576;8.076;2023-02-05T14:12:08;7.60;99.90
6690;DHT22;3382;51.576;8.076;2023-02-05T14:14:36;7.60;99.90
6690;DHT22;3382;51.576;8.076;2023-02-05T14:19:57;7.60;99.90
6690;DHT22;3382;51.576;8.076;2023-02-05T14:22:42;7.70;99.90
6690;DHT22;3382;51.576;8.076;2023-02-05T14:27:59;7.60;99.90
6690;DHT22;3382;51.576;8.076;2023-02-05T14:32:59;7.60;99.90
6690;DHT22;3382;51.576;8.076;2023-02-05T14:35:33;7.60;99.90
6690;DHT22;3382;51.576;8.076;2023-02-05T14:41:10;7.80;99.90
6690;DHT22;3382;51.576;8.076;2023-02-05T14:43:38;7.60;99.90
6690;DHT22;3382;51.576;8.076;2023-02-05T14:48:54;7.50;99.90
6690;DHT22;3382;51.576;8.076;2023-02-05T14:51:40;7.60;99.90
6690;DHT22;3382;51.576;8.076;2023-02-05T14:54:15;7.70;99.90
6690;DHT22;3382;51.576;8.076;2023-02-05T14:56:46;7.60;99.90
6690;DHT22;3382;51.576;8.076;2023-02-05T15:01:54;7.50;99.90
6690;DHT22;3382;51.576;8.076;2023-02-05T15:06:49;7.40;99.90
6690;DHT22;3382;51.576;8.076;2023-02-05T15:09:32;7.50;99.90
6690;DHT22;3382;51.576;8.076;2023-02-05T15:14:52;7.60;99.90
6690;DHT22;3382;51.576;8.076;2023-02-05T15:19:56;7.60;99.90
6690;DHT22;3382;51.576;8.076;2023-02-05T15:22:34;8.00;99.90
6690;DHT22;3382;51.576;8.076;2023-02-05T15:25:03;7.90;99.90
6690;DHT22;3382;51.576;8.076;2023-02-05T15:27:45;8.20;99.90
6690;DHT22;3382;51.576;8.076;2023-02-05T15:30:24;9.00;99.90
6690;DHT22;3382;51.576;8.076;2023-02-05T15:33:01;8.50;99.90
6690;DHT22;3382;51.576;8.076;2023-02-05T15:35:29;8.30;99.90
6690;DHT22;3382;51.576;8.076;2023-02-05T15:38:01;8.70;99.90
6690;DHT22;3382;51.576;8.076;2023-02-05T15:40:30;8.10;99.90
6690;DHT22;3382;51.576;8.076;2023-02-05T15:43:08;8.00;99.90
6690;DHT22;3382;51.576;8.076;2023-02-05T15:45:34;8.00;99.90
6690;DHT22;3382;51.576;8.076;2023-02-05T15:53:04;7.90;99.90
6690;DHT22;3382;51.576;8.076;2023-02-05T15:55:30;8.00;99.90
6690;DHT22;3382;51.576;8.076;2023-02-05T15:57:59;8.00;99.90
6690;DHT22;3382;51.576;8.076;2023-02-05T16:00:29;8.50;99.90
6690;DHT22;3382;51.576;8.076;2023-02-05T16:02:58;8.10;99.90
6690;DHT22;3382;51.576;8.076;2023-02-05T16:05:25;8.00;99.90
6690;DHT22;3382;51.576;8.076;2023-02-05T16:07:51;8.00;99.90
6690;DHT22;3382;51.576;8.076;2023-02-05T16:10:26;8.00;99.90
6690;DHT22;3382;51.576;8.076;2023-02-05T16:18:03;8.20;99.90
6690;DHT22;3382;51.576;8.076;2023-02-05T16:20:39;8.20;99.90
6690;DHT22;3382;51.576;8.076;2023-02-05T16:23:33;8.30;99.90
6690;DHT22;3382;51.576;8.076;2023-02-05T16:26:21;8.30;99.90
6690;DHT22;3382;51.576;8.076;2023-02-05T16:28:57;8.40;99.90
6690;DHT22;3382;51.576;8.076;2023-02-05T16:31:25;8.40;99.90
6690;DHT22;3382;51.576;8.076;2023-02-05T16:34:00;8.50;99.90
6690;DHT22;3382;51.576;8.076;2023-02-05T16:36:33;8.50;99.90
6690;DHT22;3382;51.576;8.076;2023-02-05T16:39:06;8.40;99.90
6690;DHT22;3382;51.576;8.076;2023-02-05T16:41:36;8.20;99.90
6690;DHT22;3382;51.576;8.076;2023-02-05T16:44:04;8.10;99.90
6690;DHT22;3382;51.576;8.076;2023-02-05T16:46:35;8.00;99.90
6690;DHT22;3382;51.576;8.076;2023-02-05T16:49:02;7.90;99.90
6690;DHT22;3382;51.576;8.076;2023-02-05T16:59:20;7.80;99.90
6690;DHT22;3382;51.576;8.076;2023-02-05T17:01:49;7.70;99.90
6690;DHT22;3382;51.576;8.076;2023-02-05T17:04:26;7.70;99.90
6690;DHT22;3382;51.576;8.076;2023-02-05T17:06:54;7.70;99.90
6690;DHT22;3382;51.576;8.076;2023-02-05T17:09:40;7.50;99.90
6690;DHT22;3382;51.576;8.076;2023-02-05T17:17:21;7.60;99.90
6690;DHT22;3382;51.576;8.076;2023-02-05T17:22:39;7.60;99.90
6690;DHT22;3382;51.576;8.076;2023-02-05T17:25:05;7.60;99.90
6690;DHT22;3382;51.576;8.076;2023-02-05T17:27:37;7.50;99.90
6690;DHT22;3382;51.576;8.076;2023-02-05T17:30:06;7.80;99.90
6690;DHT22;3382;51.576;8.076;2023-02-05T17:32:36;7.50;99.90
6690;DHT22;3382;51.576;8.076;2023-02-05T17:35:02;7.50;99.90
6690;DHT22;3382;51.576;8.076;2023-02-05T17:37:36;7.40;99.90
6690;DHT22;3382;51.576;8.076;2023-02-05T17:40:02;7.40;99.90
6690;DHT22;3382;51.576;8.076;2023-02-05T17:42:28;7.40;99.90
6690;DHT22;3382;51.576;8.076;2023-02-05T17:44:55;7.40;99.90
6690;DHT22;3382;51.576;8.076;2023-02-05T17:47:21;7.40;99.90
6690;DHT22;3382;51.576;8.076;2023-02-05T17:49:46;7.40;99.90
6690;DHT22;3382;51.576;8.076;2023-02-05T17:52:12;7.30;99.90
6690;DHT22;3382;51.576;8.076;2023-02-05T17:54:40;7.30;99.90
6690;DHT22;3382;51.576;8.076;2023-02-05T17:57:26;7.30;99.90
6690;DHT22;3382;51.576;8.076;2023-02-05T17:59:52;7.30;99.90
6690;DHT22;3382;51.576;8.076;2023-02-05T18:02:17;7.30;99.90
6690;DHT22;3382;51.576;8.076;2023-02-05T18:04:44;7.30;99.90
6690;DHT22;3382;51.576;8.076;2023-02-05T18:07:19;7.20;99.90
6690;DHT22;3382;51.576;8.076;2023-02-05T18:09:45;7.30;99.90
6690;DHT22;3382;51.576;8.076;2023-02-05T18:12:11;7.20;99.90
6690;DHT22;3382;51.576;8.076;2023-02-05T18:14:36;7.20;99.90
6690;DHT22;3382;51.576;8.076;2023-02-05T18:17:02;7.20;99.90
6690;DHT22;3382;51.576;8.076;2023-02-05T18:19:27;7.20;99.90
6690;DHT22;3382;51.576;8.076;2023-02-05T18:21:53;7.20;99.90
6690;DHT22;3382;51.576;8.076;2023-02-05T18:24:19;7.20;99.90
6690;DHT22;3382;51.576;8.076;2023-02-05T18:26:45;7.30;99.90
6690;DHT22;3382;51.576;8.076;2023-02-05T18:29:12;7.20;99.90
6690;DHT22;3382;51.576;8.076;2023-02-05T18:31:38;7.30;99.90
6690;DHT22;3382;51.576;8.076;2023-02-05T18:34:04;7.20;99.90
6690;DHT22;3382;51.576;8.076;2023-02-05T18:36:29;7.20;99.90
6690;DHT22;3382;51.576;8.076;2023-02-05T18:38:55;7.20;99.90
6690;DHT22;3382;51.576;8.076;2023-02-05T18:41:22;7.20;99.90
6690;DHT22;3382;51.576;8.076;2023-02-05T18:43:53;7.30;99.90
6690;DHT22;3382;51.576;8.076;2023-02-05T18:46:19;7.20;99.90
6690;DHT22;3382;51.576;8.076;2023-02-05T18:48:45;7.30;99.90
6690;DHT22;3382;51.576;8.076;2023-02-05T18:51:15;7.30;99.90
6690;DHT22;3382;51.576;8.076;2023-02-05T18:53:41;7.20;99.90
6690;DHT22;3382;51.576;8.076;2023-02-05T18:56:11;7.20;99.90
6690;DHT22;3382;51.576;8.076;2023-02-05T18:58:41;7.20;99.90
6690;DHT22;3382;51.576;8.076;2023-02-05T19:03:34;7.20;99.90
6690;DHT22;3382;51.576;8.076;2023-02-05T19:06:13;7.20;99.90
6690;DHT22;3382;51.576;8.076;2023-02-05T19:08:40;7.20;99.90
6690;DHT22;3382;51.576;8.076;2023-02-05T19:11:11;7.20;99.90
6690;DHT22;3382;51.576;8.076;2023-02-05T19:13:37;7.20;99.90
6690;DHT22;3382;51.576;8.076;2023-02-05T19:16:07;7.10;99.90
6690;DHT22;3382;51.576;8.076;2023-02-05T19:18:33;7.10;99.90
6690;DHT22;3382;51.576;8.076;2023-02-05T19:21:07;7.10;99.90
6690;DHT22;3382;51.576;8.076;2023-02-05T19:23:34;7.10;99.90
6690;DHT22;3382;51.576;8.076;2023-02-05T19:26:05;7.10;99.90